sensor_id;sensor_type;location;lat;lon;timestamp;temperature;humidity
1091;DHT22;534;48.704;9.122;2023-01-10T04:02:52;5.70;89.00
1091;DHT22;534;48.704;9.122;2023-01-10T04:05:20;5.80;89.00
1091;DHT22;534;48.704;9.122;2023-01-10T04:07:46;5.80;88.80
1091;DHT22;534;48.704;9.122;2023-01-10T04:10:14;5.90;88.90
1091;DHT22;534;48.704;9.122;2023-01-10T04:12:40;5.90;88.80
1091;DHT22;534;48.704;9.122;2023-01-10T04:15:08;5.90;88.60
1091;DHT22;534;48.704;9.122;2023-01-10T04:17:34;5.80;88.70
1091;DHT22;534;48.704;9.122;2023-01-10T04:20:03;5.90;88.70
1091;DHT22;534;48.704;9.122;2023-01-10T04:22:30;5.90;88.40
1091;DHT22;534;48.704;9.122;2023-01-10T04:24:56;5.90;88.30
1091;DHT22;534;48.704;9.122;2023-01-10T04:27:23;5.90;88.30
1091;DHT22;534;48.704;9.122;2023-01-10T04:29:50;6.00;88.40
1091;DHT22;534;48.704;9.122;2023-01-10T04:32:17;6.00;88.00
1091;DHT22;534;48.704;9.122;2023-01-10T04:34:44;6.10;87.50
1091;DHT22;534;48.704;9.122;2023-01-10T04:37:12;6.00;87.30
1091;DHT22;534;48.704;9.122;2023-01-10T04:39:38;6.10;87.10
1091;DHT22;534;48.704;9.122;2023-01-10T04:42:05;6.00;87.40
1091;DHT22;534;48.704;9.122;2023-01-10T04:44:32;6.10;87.80
1091;DHT22;534;48.704;9.122;2023-01-10T04:46:58;6.10;87.30
1091;DHT22;534;48.704;9.122;2023-01-10T04:49:25;6.20;87.60
1091;DHT22;534;48.704;9.122;2023-01-10T04:51:52;6.20;87.30
1091;DHT22;534;48.704;9.122;2023-01-10T04:54:20;6.20;87.00
1091;DHT22;534;48.704;9.122;2023-01-10T04:56:47;6.20;87.00
1091;DHT22;534;48.704;9.122;2023-01-10T04:59:14;6.10;86.90
1091;DHT22;534;48.704;9.122;2023-01-10T05:01:41;6.10;86.70
1091;DHT22;534;48.704;9.122;2023-01-10T05:04:07;6.00;87.20
1091;DHT22;534;48.704;9.122;2023-01-10T05:06:34;6.00;87.60
1091;DHT22;534;48.704;9.122;2023-01-10T05:09:01;6.20;87.30
1091;DHT22;534;48.704;9.122;2023-01-10T05:11:29;6.20;87.10
1091;DHT22;534;48.704;9.122;2023-01-10T05:13:56;6.30;86.60
1091;DHT22;534;48.704;9.122;2023-01-10T05:16:22;6.30;86.50
1091;DHT22;534;48.704;9.122;2023-01-10T05:18:49;6.30;86.30
1091;DHT22;534;48.704;9.122;2023-01-10T05:21:17;6.20;86.10
1091;DHT22;534;48.704;9.122;2023-01-10T05:23:44;6.20;86.30
1091;DHT22;534;48.704;9.122;2023-01-10T05:26:13;6.20;86.50
1091;DHT22;534;48.704;9.122;2023-01-10T05:28:41;6.00;86.60
1091;DHT22;534;48.704;9.122;2023-01-10T05:31:11;5.90;86.80
1091;DHT22;534;48.704;9.122;2023-01-10T05:33:38;6.00;87.00
1091;DHT22;534;48.704;9.122;2023-01-10T05:36:06;6.00;86.50
1091;DHT22;534;48.704;9.122;2023-01-10T05:38:33;6.00;86.70
1091;DHT22;534;48.704;9.122;2023-01-10T05:41:00;5.90;86.90
1091;DHT22;534;48.704;9.122;2023-01-10T05:43:27;5.90;86.70
1091;DHT22;534;48.704;9.122;2023-01-10T05:45:55;6.00;87.00
1091;DHT22;534;48.704;9.122;2023-01-10T05:48:22;6.00;86.50
1091;DHT22;534;48.704;9.122;2023-01-10T05:50:49;6.00;86.60
1091;DHT22;534;48.704;9.122;2023-01-10T05:53:16;5.90;86.90
1091;DHT22;534;48.704;9.122;2023-01-10T05:55:44;6.00;86.80
1091;DHT22;534;48.704;9.122;2023-01-10T05:58:17;6.20;86.40
1091;DHT22;534;48.704;9.122;2023-01-10T06:00:44;6.10;86.20
1091;DHT22;534;48.704;9.122;2023-01-10T06:03:12;6.20;85.80
1091;DHT22;534;48.704;9.122;2023-01-10T06:05:38;6.30;85.90
1091;DHT22;534;48.704;9.122;2023-01-10T06:08:05;6.20;84.90
1091;DHT22;534;48.704;9.122;2023-01-10T06:10:31;6.20;84.80
1091;DHT22;534;48.704;9.122;2023-01-10T06:12:58;6.20;84.80
1091;DHT22;534;48.704;9.122;2023-01-10T06:15:25;6.20;84.60
1091;DHT22;534;48.704;9.122;2023-01-10T06:17:52;6.30;84.90
1091;DHT22;534;48.704;9.122;2023-01-10T06:20:20;6.40;84.40
1091;DHT22;534;48.704;9.122;2023-01-10T06:22:47;6.50;84.10
1091;DHT22;534;48.704;9.122;2023-01-10T06:25:14;6.50;83.60
1091;DHT22;534;48.704;9.122;2023-01-10T06:27:41;6.50;83.40
1091;DHT22;534;48.704;9.122;2023-01-10T06:30:10;6.50;83.50
1091;DHT22;534;48.704;9.122;2023-01-10T06:32:37;6.50;83.20
1091;DHT22;534;48.704;9.122;2023-01-10T06:35:05;6.60;83.10
1091;DHT22;534;48.704;9.122;2023-01-10T06:37:33;6.70;82.90
1091;DHT22;534;48.704;9.122;2023-01-10T06:40:00;6.80;83.00
1091;DHT22;534;48.704;9.122;2023-01-10T06:42:26;6.70;82.80
1091;DHT22;534;48.704;9.122;2023-01-10T06:44:53;6.70;82.80
1091;DHT22;534;48.704;9.122;2023-01-10T06:47:20;6.70;82.60
1091;DHT22;534;48.704;9.122;2023-01-10T06:49:46;6.60;82.40
1091;DHT22;534;48.704;9.122;2023-01-10T06:52:13;6.60;82.20
1091;DHT22;534;48.704;9.122;2023-01-10T06:54:41;6.50;81.80
1091;DHT22;534;48.704;9.122;2023-01-10T06:57:08;6.20;82.00
1091;DHT22;534;48.704;9.122;2023-01-10T06:59:35;6.20;82.60
1091;DHT22;534;48.704;9.122;2023-01-10T07:02:01;6.20;82.40
1091;DHT22;534;48.704;9.122;2023-01-10T07:04:28;6.20;82.30
1091;DHT22;534;48.704;9.122;2023-01-10T07:06:55;6.10;82.70
1091;DHT22;534;48.704;9.122;2023-01-10T07:09:21;6.20;82.60
1091;DHT22;534;48.704;9.122;2023-01-10T07:11:49;6.20;83.10
1091;DHT22;534;48.704;9.122;2023-01-10T07:14:16;6.20;82.60
1091;DHT22;534;48.704;9.122;2023-01-10T07:16:43;6.00;83.10
1091;DHT22;534;48.704;9.122;2023-01-10T07:19:10;6.20;83.30
1091;DHT22;534;48.704;9.122;2023-01-10T07:21:37;6.20;83.40
1091;DHT22;534;48.704;9.122;2023-01-10T07:24:05;6.30;83.20
1091;DHT22;534;48.704;9.122;2023-01-10T07:26:32;6.40;82.80
1091;DHT22;534;48.704;9.122;2023-01-10T07:29:00;6.40;82.80
1091;DHT22;534;48.704;9.122;2023-01-10T07:31:27;6.50;82.70
1091;DHT22;534;48.704;9.122;2023-01-10T07:33:54;6.70;82.40
1091;DHT22;534;48.704;9.122;2023-01-10T07:36:21;6.70;82.00
1091;DHT22;534;48.704;9.122;2023-01-10T07:38:48;6.70;82.10
1091;DHT22;534;48.704;9.122;2023-01-10T07:41:14;6.70;81.00
1091;DHT22;534;48.704;9.122;2023-01-10T07:43:41;6.60;81.30
1091;DHT22;534;48.704;9.122;2023-01-10T07:46:10;6.40;81.70
1091;DHT22;534;48.704;9.122;2023-01-10T07:48:37;6.40;82.30
1091;DHT22;534;48.704;9.122;2023-01-10T07:51:06;6.40;81.80
1091;DHT22;534;48.704;9.122;2023-01-10T07:53:33;6.40;82.40
1091;DHT22;534;48.704;9.122;2023-01-10T07:56:01;6.40;82.30
1091;DHT22;534;48.704;9.122;2023-01-10T07:58:28;6.40;81.80
1091;DHT22;534;48.704;9.122;2023-01-10T08:00:56;6.40;82.30
1091;DHT22;534;48.704;9.122;2023-01-10T08:03:25;6.60;82.40
1091;DHT22;534;48.704;9.122;2023-01-10T08:05:57;6.40;82.80
1091;DHT22;534;48.704;9.122;2023-01-10T08:08:24;6.50;82.90
1091;DHT22;534;48.704;9.122;2023-01-10T08:10:51;6.50;82.30
1091;DHT22;534;48.704;9.122;2023-01-10T08:13:17;6.60;82.50
1091;DHT22;534;48.704;9.122;2023-01-10T08:15:44;6.60;82.50
1091;DHT22;534;48.704;9.122;2023-01-10T08:18:11;6.70;82.50
1091;DHT22;534;48.704;9.122;2023-01-10T08:20:39;6.60;82.80
1091;DHT22;534;48.704;9.122;2023-01-10T08:23:06;6.60;83.10
1091;DHT22;534;48.704;9.122;2023-01-10T08:25:33;6.40;82.70
1091;DHT22;534;48.704;9.122;2023-01-10T08:27:59;6.50;82.80
1091;DHT22;534;48.704;9.122;2023-01-10T08:30:26;6.60;82.70
1091;DHT22;534;48.704;9.122;2023-01-10T08:32:53;6.60;82.10
1091;DHT22;534;48.704;9.122;2023-01-10T08:35:20;6.50;82.20
1091;DHT22;534;48.704;9.122;2023-01-10T08:37:48;6.70;82.20
1091;DHT22;534;48.704;9.122;2023-01-10T08:40:15;6.80;82.00
1091;DHT22;534;48.704;9.122;2023-01-10T08:42:42;6.80;81.90
1091;DHT22;534;48.704;9.122;2023-01-10T08:45:09;6.50;81.40
1091;DHT22;534;48.704;9.122;2023-01-10T08:47:36;6.50;82.60
1091;DHT22;534;48.704;9.122;2023-01-10T08:50:03;6.60;82.70
1091;DHT22;534;48.704;9.122;2023-01-10T08:52:30;6.50;83.60
1091;DHT22;534;48.704;9.122;2023-01-10T08:54:58;6.50;82.50
1091;DHT22;534;48.704;9.122;2023-01-10T08:57:24;6.40;82.70
1091;DHT22;534;48.704;9.122;2023-01-10T08:59:51;6.30;83.80
1091;DHT22;534;48.704;9.122;2023-01-10T09:02:18;6.30;84.20
1091;DHT22;534;48.704;9.122;2023-01-10T09:04:44;6.30;84.10
1091;DHT22;534;48.704;9.122;2023-01-10T09:07:11;6.00;84.90
1091;DHT22;534;48.704;9.122;2023-01-10T09:09:38;5.80;85.60
1091;DHT22;534;48.704;9.122;2023-01-10T09:12:06;5.60;87.10
1091;DHT22;534;48.704;9.122;2023-01-10T09:15:01;5.60;87.70
1091;DHT22;534;48.704;9.122;2023-01-10T09:17:28;5.50;87.80
1091;DHT22;534;48.704;9.122;2023-01-10T09:19:54;5.50;88.40
1091;DHT22;534;48.704;9.122;2023-01-10T09:22:21;5.60;88.40
1091;DHT22;534;48.704;9.122;2023-01-10T09:24:48;5.50;87.70
1091;DHT22;534;48.704;9.122;2023-01-10T09:27:16;5.50;87.90
1091;DHT22;534;48.704;9.122;2023-01-10T09:29:42;5.60;87.80
1091;DHT22;534;48.704;9.122;2023-01-10T09:32:09;5.40;87.60
1091;DHT22;534;48.704;9.122;2023-01-10T09:34:36;5.40;88.90
1091;DHT22;534;48.704;9.122;2023-01-10T09:37:02;5.20;88.50
1091;DHT22;534;48.704;9.122;2023-01-10T09:39:29;5.30;88.70
1091;DHT22;534;48.704;9.122;2023-01-10T09:42:13;5.40;88.90
1091;DHT22;534;48.704;9.122;2023-01-10T09:44:51;5.50;88.10
1091;DHT22;534;48.704;9.122;2023-01-10T09:47:23;5.60;88.20
1091;DHT22;534;48.704;9.122;2023-01-10T09:50:02;5.50;88.40
1091;DHT22;534;48.704;9.122;2023-01-10T09:52:33;5.50;88.90
1091;DHT22;534;48.704;9.122;2023-01-10T09:55:09;5.50;88.70
1091;DHT22;534;48.704;9.122;2023-01-10T09:57:41;5.70;88.80
1091;DHT22;534;48.704;9.122;2023-01-10T10:00:16;5.80;87.90
1091;DHT22;534;48.704;9.122;2023-01-10T10:02:44;6.00;88.30
1091;DHT22;534;48.704;9.122;2023-01-10T10:05:18;6.00;86.80
1091;DHT22;534;48.704;9.122;2023-01-10T10:07:51;6.10;86.30
1091;DHT22;534;48.704;9.122;2023-01-10T10:10:22;6.20;86.50
1091;DHT22;534;48.704;9.122;2023-01-10T10:12:59;6.20;86.00
1091;DHT22;534;48.704;9.122;2023-01-10T10:15:35;6.20;86.60
1091;DHT22;534;48.704;9.122;2023-01-10T10:18:11;6.30;85.60
1091;DHT22;534;48.704;9.122;2023-01-10T10:20:49;6.20;85.80
1091;DHT22;534;48.704;9.122;2023-01-10T10:23:55;6.20;86.20
1091;DHT22;534;48.704;9.122;2023-01-10T10:26:30;6.30;85.70
1091;DHT22;534;48.704;9.122;2023-01-10T10:32:20;6.50;86.20
1091;DHT22;534;48.704;9.122;2023-01-10T10:34:50;6.70;86.00
1091;DHT22;534;48.704;9.122;2023-01-10T10:37:21;6.70;84.30
1091;DHT22;534;48.704;9.122;2023-01-10T10:39:51;6.60;83.10
1091;DHT22;534;48.704;9.122;2023-01-10T10:42:19;6.70;83.70
1091;DHT22;534;48.704;9.122;2023-01-10T10:44:50;6.80;84.00
1091;DHT22;534;48.704;9.122;2023-01-10T10:47:21;6.70;82.40
1091;DHT22;534;48.704;9.122;2023-01-10T10:49:51;6.40;83.00
1091;DHT22;534;48.704;9.122;2023-01-10T10:52:23;6.50;84.50
1091;DHT22;534;48.704;9.122;2023-01-10T10:54:50;6.70;84.70
1091;DHT22;534;48.704;9.122;2023-01-10T10:57:18;6.80;83.00
1091;DHT22;534;48.704;9.122;2023-01-10T10:59:47;6.80;83.00
1091;DHT22;534;48.704;9.122;2023-01-10T11:02:24;6.80;82.90
1091;DHT22;534;48.704;9.122;2023-01-10T11:04:52;7.00;83.50
1091;DHT22;534;48.704;9.122;2023-01-10T11:07:21;7.10;83.00
1091;DHT22;534;48.704;9.122;2023-01-10T11:09:48;7.30;82.50
1091;DHT22;534;48.704;9.122;2023-01-10T11:12:20;7.10;81.10
1091;DHT22;534;48.704;9.122;2023-01-10T11:14:50;7.20;82.20
1091;DHT22;534;48.704;9.122;2023-01-10T11:17:20;7.20;81.60
1091;DHT22;534;48.704;9.122;2023-01-10T11:19:59;7.10;81.50
1091;DHT22;534;48.704;9.122;2023-01-10T11:22:28;7.00;82.70
1091;DHT22;534;48.704;9.122;2023-01-10T11:24:57;6.80;81.60
1091;DHT22;534;48.704;9.122;2023-01-10T11:27:26;6.80;82.20
1091;DHT22;534;48.704;9.122;2023-01-10T11:29:57;6.70;84.10
1091;DHT22;534;48.704;9.122;2023-01-10T11:32:31;6.90;83.70
1091;DHT22;534;48.704;9.122;2023-01-10T11:35:02;6.80;82.80
1091;DHT22;534;48.704;9.122;2023-01-10T11:37:33;6.80;82.10
1091;DHT22;534;48.704;9.122;2023-01-10T11:40:17;7.00;82.50
1091;DHT22;534;48.704;9.122;2023-01-10T11:42:45;7.20;81.70
1091;DHT22;534;48.704;9.122;2023-01-10T11:45:24;7.20;82.20
1091;DHT22;534;48.704;9.122;2023-01-10T11:47:54;7.50;82.30
1091;DHT22;534;48.704;9.122;2023-01-10T11:50:25;7.50;80.10
1091;DHT22;534;48.704;9.122;2023-01-10T11:52:53;7.70;81.80
1091;DHT22;534;48.704;9.122;2023-01-10T11:55:22;7.90;80.10
1091;DHT22;534;48.704;9.122;2023-01-10T11:57:57;7.90;78.50
1091;DHT22;534;48.704;9.122;2023-01-10T12:00:31;8.10;78.80
1091;DHT22;534;48.704;9.122;2023-01-10T12:02:58;8.10;77.40
1091;DHT22;534;48.704;9.122;2023-01-10T12:05:27;7.90;78.10
1091;DHT22;534;48.704;9.122;2023-01-10T12:07:56;8.00;80.30
1091;DHT22;534;48.704;9.122;2023-01-10T12:10:24;8.30;79.30
1091;DHT22;534;48.704;9.122;2023-01-10T12:12:52;8.60;77.70
1091;DHT22;534;48.704;9.122;2023-01-10T12:15:23;8.90;76.90
1091;DHT22;534;48.704;9.122;2023-01-10T12:17:51;9.40;74.90
1091;DHT22;534;48.704;9.122;2023-01-10T12:20:20;9.50;74.60
1091;DHT22;534;48.704;9.122;2023-01-10T12:22:53;9.40;74.00
1091;DHT22;534;48.704;9.122;2023-01-10T12:25:26;9.00;73.30
1091;DHT22;534;48.704;9.122;2023-01-10T12:27:56;8.70;74.40
1091;DHT22;534;48.704;9.122;2023-01-10T12:30:31;8.70;75.30
1091;DHT22;534;48.704;9.122;2023-01-10T12:33:01;8.70;76.00
1091;DHT22;534;48.704;9.122;2023-01-10T12:35:38;9.40;75.30
1091;DHT22;534;48.704;9.122;2023-01-10T12:38:19;10.10;71.00
1091;DHT22;534;48.704;9.122;2023-01-10T12:40:50;10.00;70.90
1091;DHT22;534;48.704;9.122;2023-01-10T12:43:24;11.30;67.30
1091;DHT22;534;48.704;9.122;2023-01-10T12:46:14;13.10;63.30
1091;DHT22;534;48.704;9.122;2023-01-10T12:48:49;12.50;62.70
1091;DHT22;534;48.704;9.122;2023-01-10T12:51:21;12.40;63.80
1091;DHT22;534;48.704;9.122;2023-01-10T12:53:54;11.90;64.30
1091;DHT22;534;48.704;9.122;2023-01-10T12:56:23;11.00;64.40
1091;DHT22;534;48.704;9.122;2023-01-10T12:58:51;10.40;66.10
1091;DHT22;534;48.704;9.122;2023-01-10T13:01:21;10.30;68.00
1091;DHT22;534;48.704;9.122;2023-01-10T13:03:53;10.40;66.50
1091;DHT22;534;48.704;9.122;2023-01-10T13:06:23;10.70;65.90
1091;DHT22;534;48.704;9.122;2023-01-10T13:08:53;10.60;65.80
1091;DHT22;534;48.704;9.122;2023-01-10T13:11:23;10.60;66.60
1091;DHT22;534;48.704;9.122;2023-01-10T13:13:56;10.60;65.20
1091;DHT22;534;48.704;9.122;2023-01-10T13:16:31;10.40;65.40
1091;DHT22;534;48.704;9.122;2023-01-10T13:19:03;10.20;66.30
1091;DHT22;534;48.704;9.122;2023-01-10T13:21:32;10.10;66.30
1091;DHT22;534;48.704;9.122;2023-01-10T13:24:02;9.40;65.90
1091;DHT22;534;48.704;9.122;2023-01-10T13:26:47;9.40;67.10
1091;DHT22;534;48.704;9.122;2023-01-10T13:29:17;9.20;67.10
1091;DHT22;534;48.704;9.122;2023-01-10T13:31:45;8.70;68.60
1091;DHT22;534;48.704;9.122;2023-01-10T13:34:14;8.50;70.90
1091;DHT22;534;48.704;9.122;2023-01-10T13:36:45;8.40;71.30
1091;DHT22;534;48.704;9.122;2023-01-10T13:39:26;8.50;72.10
1091;DHT22;534;48.704;9.122;2023-01-10T13:42:27;9.30;70.00
1091;DHT22;534;48.704;9.122;2023-01-10T13:45:15;9.80;68.00
1091;DHT22;534;48.704;9.122;2023-01-10T13:48:00;10.60;64.40
1091;DHT22;534;48.704;9.122;2023-01-10T13:51:11;10.90;62.20
1091;DHT22;534;48.704;9.122;2023-01-10T13:53:57;10.50;63.30
1091;DHT22;534;48.704;9.122;2023-01-10T13:56:33;11.00;62.10
1091;DHT22;534;48.704;9.122;2023-01-10T13:59:01;11.00;61.40
1091;DHT22;534;48.704;9.122;2023-01-10T14:01:49;11.00;60.60
1091;DHT22;534;48.704;9.122;2023-01-10T14:04:37;12.10;60.00
1091;DHT22;534;48.704;9.122;2023-01-10T14:07:11;12.60;57.10
1091;DHT22;534;48.704;9.122;2023-01-10T14:09:41;13.10;55.10
1091;DHT22;534;48.704;9.122;2023-01-10T14:12:24;12.90;55.40
1091;DHT22;534;48.704;9.122;2023-01-10T14:14:56;12.60;56.80
1091;DHT22;534;48.704;9.122;2023-01-10T14:17:25;12.20;58.10
1091;DHT22;534;48.704;9.122;2023-01-10T14:20:05;11.70;58.70
1091;DHT22;534;48.704;9.122;2023-01-10T14:22:36;11.40;59.40
1091;DHT22;534;48.704;9.122;2023-01-10T14:25:05;10.90;61.50
1091;DHT22;534;48.704;9.122;2023-01-10T14:27:42;10.90;60.10
1091;DHT22;534;48.704;9.122;2023-01-10T14:30:16;10.90;61.10
1091;DHT22;534;48.704;9.122;2023-01-10T14:32:46;11.00;60.80
1091;DHT22;534;48.704;9.122;2023-01-10T14:35:18;11.00;61.50
1091;DHT22;534;48.704;9.122;2023-01-10T14:37:50;10.60;61.50
1091;DHT22;534;48.704;9.122;2023-01-10T14:40:24;10.20;62.90
1091;DHT22;534;48.704;9.122;2023-01-10T14:42:54;9.50;64.30
1091;DHT22;534;48.704;9.122;2023-01-10T14:45:30;8.90;66.50
1091;DHT22;534;48.704;9.122;2023-01-10T14:47:59;8.20;69.20
1091;DHT22;534;48.704;9.122;2023-01-10T14:50:42;8.00;69.90
1091;DHT22;534;48.704;9.122;2023-01-10T14:53:23;7.90;70.70
1091;DHT22;534;48.704;9.122;2023-01-10T14:55:50;7.80;70.60
1091;DHT22;534;48.704;9.122;2023-01-10T14:58:18;7.70;70.80
1091;DHT22;534;48.704;9.122;2023-01-10T15:00:47;7.50;71.10
1091;DHT22;534;48.704;9.122;2023-01-10T15:03:17;7.30;72.00
1091;DHT22;534;48.704;9.122;2023-01-10T15:05:46;6.90;72.40
1091;DHT22;534;48.704;9.122;2023-01-10T15:08:16;6.80;73.20
1091;DHT22;534;48.704;9.122;2023-01-10T15:10:43;6.90;72.90
1091;DHT22;534;48.704;9.122;2023-01-10T15:13:14;6.90;73.10
1091;DHT22;534;48.704;9.122;2023-01-10T15:15:46;7.00;73.20
1091;DHT22;534;48.704;9.122;2023-01-10T15:18:28;6.90;73.10
1091;DHT22;534;48.704;9.122;2023-01-10T15:20:56;7.10;73.10
1091;DHT22;534;48.704;9.122;2023-01-10T15:23:23;6.90;73.40
1091;DHT22;534;48.704;9.122;2023-01-10T15:25:55;6.90;73.90
1091;DHT22;534;48.704;9.122;2023-01-10T15:28:22;6.90;73.60
1091;DHT22;534;48.704;9.122;2023-01-10T15:30:51;7.00;73.90
1091;DHT22;534;48.704;9.122;2023-01-10T15:33:25;6.90;74.10
1091;DHT22;534;48.704;9.122;2023-01-10T15:35:53;7.00;74.00
1091;DHT22;534;48.704;9.122;2023-01-10T15:38:22;7.10;74.00
1091;DHT22;534;48.704;9.122;2023-01-10T15:40:56;7.10;73.60
1091;DHT22;534;48.704;9.122;2023-01-10T15:43:24;7.10;74.00
1091;DHT22;534;48.704;9.122;2023-01-10T15:45:53;7.00;73.80
1091;DHT22;534;48.704;9.122;2023-01-10T15:48:25;7.00;73.90
1091;DHT22;534;48.704;9.122;2023-01-10T15:50:53;7.00;74.30
1091;DHT22;534;48.704;9.122;2023-01-10T15:53:58;7.00;74.40
1091;DHT22;534;48.704;9.122;2023-01-10T15:56:31;7.10;74.50
1091;DHT22;534;48.704;9.122;2023-01-10T15:58:59;7.20;74.00
1091;DHT22;534;48.704;9.122;2023-01-10T16:01:27;7.00;74.00
1091;DHT22;534;48.704;9.122;2023-01-10T16:03:56;7.00;74.00
1091;DHT22;534;48.704;9.122;2023-01-10T16:06:25;6.90;74.10
1091;DHT22;534;48.704;9.122;2023-01-10T16:08:54;7.00;74.40
1091;DHT22;534;48.704;9.122;2023-01-10T16:11:37;7.20;74.40
1091;DHT22;534;48.704;9.122;2023-01-10T16:14:23;7.10;73.90
1091;DHT22;534;48.704;9.122;2023-01-10T16:16:49;7.20;73.60
1091;DHT22;534;48.704;9.122;2023-01-10T16:19:16;7.10;73.40
1091;DHT22;534;48.704;9.122;2023-01-10T16:21:45;7.20;73.00
1091;DHT22;534;48.704;9.122;2023-01-10T16:24:17;7.00;73.50
1091;DHT22;534;48.704;9.122;2023-01-10T16:26:46;7.10;73.10
1091;DHT22;534;48.704;9.122;2023-01-10T16:29:14;7.10;73.20
1091;DHT22;534;48.704;9.122;2023-01-10T16:31:41;7.00;72.90
1091;DHT22;534;48.704;9.122;2023-01-10T16:34:08;6.80;73.50
1091;DHT22;534;48.704;9.122;2023-01-10T16:36:35;6.90;73.40
1091;DHT22;534;48.704;9.122;2023-01-10T16:39:05;7.00;73.20
1091;DHT22;534;48.704;9.122;2023-01-10T16:41:33;6.90;73.40
1091;DHT22;534;48.704;9.122;2023-01-10T16:44:19;6.90;73.40
1091;DHT22;534;48.704;9.122;2023-01-10T16:46:45;6.80;73.00
1091;DHT22;534;48.704;9.122;2023-01-10T16:49:12;6.90;73.30
1091;DHT22;534;48.704;9.122;2023-01-10T16:51:40;6.90;73.00
1091;DHT22;534;48.704;9.122;2023-01-10T16:54:12;6.90;73.00
1091;DHT22;534;48.704;9.122;2023-01-10T16:56:40;6.80;73.40
1091;DHT22;534;48.704;9.122;2023-01-10T16:59:07;7.00;73.40
1091;DHT22;534;48.704;9.122;2023-01-10T17:01:37;7.10;73.30
1091;DHT22;534;48.704;9.122;2023-01-10T17:04:05;7.10;73.00
1091;DHT22;534;48.704;9.122;2023-01-10T17:06:32;7.10;72.80
1091;DHT22;534;48.704;9.122;2023-01-10T17:08:59;6.90;73.00
1091;DHT22;534;48.704;9.122;2023-01-10T17:11:28;6.90;73.00
1091;DHT22;534;48.704;9.122;2023-01-10T17:13:57;7.00;73.70
1091;DHT22;534;48.704;9.122;2023-01-10T17:16:24;7.10;73.00
1091;DHT22;534;48.704;9.122;2023-01-10T17:18:52;7.30;72.30
1091;DHT22;534;48.704;9.122;2023-01-10T17:21:20;7.10;72.90
1091;DHT22;534;48.704;9.122;2023-01-10T17:23:48;7.20;73.20
1091;DHT22;534;48.704;9.122;2023-01-10T17:26:16;7.20;72.70
1091;DHT22;534;48.704;9.122;2023-01-10T17:28:43;7.10;72.80
1091;DHT22;534;48.704;9.122;2023-01-10T17:31:11;7.10;72.40
1091;DHT22;534;48.704;9.122;2023-01-10T17:33:37;7.10;72.80
1091;DHT22;534;48.704;9.122;2023-01-10T17:36:06;7.00;72.50
1091;DHT22;534;48.704;9.122;2023-01-10T17:38:33;7.10;72.40
1091;DHT22;534;48.704;9.122;2023-01-10T17:41:00;7.20;72.10
1091;DHT22;534;48.704;9.122;2023-01-10T17:43:27;7.10;72.10
1091;DHT22;534;48.704;9.122;2023-01-10T17:45:54;7.20;71.80
1091;DHT22;534;48.704;9.122;2023-01-10T17:48:23;7.10;71.60
1091;DHT22;534;48.704;9.122;2023-01-10T17:50:54;7.00;72.10
1091;DHT22;534;48.704;9.122;2023-01-10T17:53:23;7.10;72.40
1091;DHT22;534;48.704;9.122;2023-01-10T17:55:51;7.10;72.40
1091;DHT22;534;48.704;9.122;2023-01-10T17:58:18;7.10;72.20
1091;DHT22;534;48.704;9.122;2023-01-10T18:00:45;7.00;72.20
1091;DHT22;534;48.704;9.122;2023-01-10T18:03:13;7.00;72.50
1091;DHT22;534;48.704;9.122;2023-01-10T18:05:47;7.00;72.50
1091;DHT22;534;48.704;9.122;2023-01-10T18:08:14;6.80;72.30
1091;DHT22;534;48.704;9.122;2023-01-10T18:10:42;6.60;73.00
1091;DHT22;534;48.704;9.122;2023-01-10T18:13:10;6.70;73.00
1091;DHT22;534;48.704;9.122;2023-01-10T18:15:39;6.80;73.10
1091;DHT22;534;48.704;9.122;2023-01-10T18:18:07;6.90;72.90
1091;DHT22;534;48.704;9.122;2023-01-10T18:20:34;7.00;72.00
1091;DHT22;534;48.704;9.122;2023-01-10T18:23:01;6.90;73.00
1091;DHT22;534;48.704;9.122;2023-01-10T18:25:53;6.80;72.60
1091;DHT22;534;48.704;9.122;2023-01-10T18:28:21;6.80;72.90
1091;DHT22;534;48.704;9.122;2023-01-10T18:30:48;6.70;73.30
1091;DHT22;534;48.704;9.122;2023-01-10T18:33:15;6.80;73.50
1091;DHT22;534;48.704;9.122;2023-01-10T18:35:42;6.90;73.50
1091;DHT22;534;48.704;9.122;2023-01-10T18:38:09;6.90;72.90
1091;DHT22;534;48.704;9.122;2023-01-10T18:40:38;6.90;72.60
1091;DHT22;534;48.704;9.122;2023-01-10T18:43:07;6.80;73.00
1091;DHT22;534;48.704;9.122;2023-01-10T18:45:39;6.80;73.30
1091;DHT22;534;48.704;9.122;2023-01-10T18:48:07;6.80;73.10
1091;DHT22;534;48.704;9.122;2023-01-10T18:50:33;6.80;73.30
1091;DHT22;534;48.704;9.122;2023-01-10T18:53:00;6.80;72.90
1091;DHT22;534;48.704;9.122;2023-01-10T18:55:27;6.60;73.40
1091;DHT22;534;48.704;9.122;2023-01-10T18:57:53;6.40;74.20
1091;DHT22;534;48.704;9.122;2023-01-10T19:00:22;6.30;74.90
1091;DHT22;534;48.704;9.122;2023-01-10T19:02:52;6.40;74.90
1091;DHT22;534;48.704;9.122;2023-01-10T19:05:22;6.40;74.60
1091;DHT22;534;48.704;9.122;2023-01-10T19:07:49;6.40;74.60
1091;DHT22;534;48.704;9.122;2023-01-10T19:10:16;6.50;74.70
1091;DHT22;534;48.704;9.122;2023-01-10T19:12:43;6.30;74.40
1091;DHT22;534;48.704;9.122;2023-01-10T19:15:10;6.30;74.90
1091;DHT22;534;48.704;9.122;2023-01-10T19:17:38;6.30;75.00
1091;DHT22;534;48.704;9.122;2023-01-10T19:20:06;6.20;75.10
1091;DHT22;534;48.704;9.122;2023-01-10T19:22:33;6.20;75.80
1091;DHT22;534;48.704;9.122;2023-01-10T19:25:00;6.20;75.50
1091;DHT22;534;48.704;9.122;2023-01-10T19:27:27;6.00;75.70
1091;DHT22;534;48.704;9.122;2023-01-10T19:29:53;6.00;75.50
1091;DHT22;534;48.704;9.122;2023-01-10T19:32:20;6.10;75.30
1091;DHT22;534;48.704;9.122;2023-01-10T19:34:48;5.90;75.30
1091;DHT22;534;48.704;9.122;2023-01-10T19:37:15;5.90;76.20
1091;DHT22;534;48.704;9.122;2023-01-10T19:39:42;5.80;76.30
1091;DHT22;534;48.704;9.122;2023-01-10T19:42:08;5.70;76.60
1091;DHT22;534;48.704;9.122;2023-01-10T19:44:35;5.70;77.10
1091;DHT22;534;48.704;9.122;2023-01-10T19:47:02;5.90;76.80
1091;DHT22;534;48.704;9.122;2023-01-10T19:49:28;5.90;76.60
1091;DHT22;534;48.704;9.122;2023-01-10T19:52:02;6.00;75.90
1091;DHT22;534;48.704;9.122;2023-01-10T19:54:29;5.90;76.30
1091;DHT22;534;48.704;9.122;2023-01-10T19:56:56;6.00;76.10
1091;DHT22;534;48.704;9.122;2023-01-10T19:59:23;5.90;76.00
1091;DHT22;534;48.704;9.122;2023-01-10T20:01:50;5.90;76.30
1091;DHT22;534;48.704;9.122;2023-01-10T20:04:17;5.90;76.20
1091;DHT22;534;48.704;9.122;2023-01-10T20:06:44;5.90;76.80
1091;DHT22;534;48.704;9.122;2023-01-10T20:09:13;5.90;76.50
1091;DHT22;534;48.704;9.122;2023-01-10T20:11:41;5.90;76.00
1091;DHT22;534;48.704;9.122;2023-01-10T20:14:12;5.90;76.40
1091;DHT22;534;48.704;9.122;2023-01-10T20:16:39;6.00;75.60
1091;DHT22;534;48.704;9.122;2023-01-10T20:19:06;6.00;75.30
1091;DHT22;534;48.704;9.122;2023-01-10T20:21:35;6.00;75.50
1091;DHT22;534;48.704;9.122;2023-01-10T20:24:02;6.10;75.40
1091;DHT22;534;48.704;9.122;2023-01-10T20:26:30;6.10;75.20
1091;DHT22;534;48.704;9.122;2023-01-10T20:28:59;6.00;74.90
1091;DHT22;534;48.704;9.122;2023-01-10T20:31:27;6.00;75.30
1091;DHT22;534;48.704;9.122;2023-01-10T20:33:54;6.00;75.20
1091;DHT22;534;48.704;9.122;2023-01-10T20:36:22;6.00;75.00
1091;DHT22;534;48.704;9.122;2023-01-10T20:38:50;6.00;75.20
1091;DHT22;534;48.704;9.122;2023-01-10T20:41:18;5.90;75.10
1091;DHT22;534;48.704;9.122;2023-01-10T20:43:47;5.90;75.00
1091;DHT22;534;48.704;9.122;2023-01-10T20:46:15;5.90;75.20
1091;DHT22;534;48.704;9.122;2023-01-10T20:48:42;5.90;75.30
1091;DHT22;534;48.704;9.122;2023-01-10T20:51:11;5.90;75.00
1091;DHT22;534;48.704;9.122;2023-01-10T20:53:38;6.00;75.30